createdAt,value
2018-12-11T00:00:48.956Z,4.60
2018-12-11T00:01:48.921Z,4.72
2018-12-11T00:02:48.904Z,4.62
2018-12-11T00:03:48.909Z,4.69
2018-12-11T00:04:48.883Z,4.66
2018-12-11T00:05:48.898Z,4.77
2018-12-11T00:06:48.860Z,4.73
2018-12-11T00:07:48.853Z,4.72
2018-12-11T00:08:48.837Z,4.73
2018-12-11T00:09:48.852Z,4.75
2018-12-11T00:10:48.880Z,4.70
2018-12-11T00:11:48.827Z,4.66
2018-12-11T00:12:48.806Z,4.85
2018-12-11T00:13:48.785Z,4.69
2018-12-11T00:14:48.792Z,4.72
2018-12-11T00:15:48.767Z,4.77
2018-12-11T00:16:48.776Z,4.78
2018-12-11T00:17:48.745Z,4.66
2018-12-11T00:18:48.735Z,4.80
2018-12-11T00:19:48.734Z,4.65
2018-12-11T00:20:48.737Z,4.72
2018-12-11T00:21:48.725Z,4.69
2018-12-11T00:22:48.693Z,4.67
2018-12-11T00:23:48.703Z,4.65
2018-12-11T00:24:48.677Z,4.55
2018-12-11T00:25:48.656Z,4.66
2018-12-11T00:26:48.663Z,4.54
2018-12-11T00:27:48.636Z,4.62
2018-12-11T00:28:48.630Z,4.60
2018-12-11T00:29:48.617Z,4.66
2018-12-11T00:30:48.613Z,4.59
2018-12-11T00:31:48.611Z,4.58
2018-12-11T00:32:48.585Z,4.63
2018-12-11T00:33:48.573Z,4.69
2018-12-11T00:34:48.556Z,4.78
2018-12-11T00:35:48.557Z,4.70
2018-12-11T00:36:48.571Z,4.77
2018-12-11T00:37:48.533Z,4.75
2018-12-11T00:38:48.528Z,4.62
2018-12-11T00:39:48.506Z,4.63
2018-12-11T00:40:48.486Z,4.52
2018-12-11T00:41:48.511Z,4.58
2018-12-11T00:42:48.473Z,4.65
2018-12-11T00:43:48.462Z,4.72
2018-12-11T00:44:48.453Z,4.63
2018-12-11T00:45:48.436Z,4.58
2018-12-11T00:46:48.424Z,4.63
2018-12-11T00:47:48.436Z,4.60
2018-12-11T00:48:48.406Z,4.66
2018-12-11T00:49:48.387Z,4.59
2018-12-11T00:50:48.382Z,4.60
2018-12-11T00:51:48.370Z,4.59
2018-12-11T00:52:48.378Z,4.62
2018-12-11T00:53:48.346Z,4.66
2018-12-11T00:54:48.344Z,4.59
2018-12-11T00:55:48.330Z,4.58
2018-12-11T00:56:48.312Z,4.58
2018-12-11T00:57:48.346Z,4.62
2018-12-11T00:58:48.286Z,4.62
2018-12-11T00:59:48.290Z,4.72
2018-12-11T01:00:48.276Z,4.69
2018-12-11T01:01:48.270Z,4.75
2018-12-11T01:02:48.286Z,4.73
2018-12-11T01:03:48.245Z,4.72
2018-12-11T01:04:48.229Z,4.85
2018-12-11T01:05:48.220Z,4.84
2018-12-11T01:06:48.206Z,4.84
2018-12-11T01:07:48.218Z,4.78
2018-12-11T01:08:48.178Z,4.82
2018-12-11T01:09:48.166Z,4.72
2018-12-11T01:10:48.171Z,4.80
2018-12-11T01:11:48.146Z,4.72
2018-12-11T01:12:48.150Z,4.67
2018-12-11T01:13:48.120Z,4.77
2018-12-11T01:14:48.119Z,4.59
2018-12-11T01:15:48.103Z,4.72
2018-12-11T01:16:48.100Z,4.63
2018-12-11T01:17:48.103Z,4.55
2018-12-11T01:18:48.068Z,4.52
2018-12-11T01:19:48.055Z,4.54
2018-12-11T01:20:48.052Z,4.62
2018-12-11T01:21:48.042Z,4.54
2018-12-11T01:22:48.049Z,4.54
2018-12-11T01:23:48.019Z,4.52
2018-12-11T01:24:48.007Z,4.59
2018-12-11T01:25:47.989Z,4.66
2018-12-11T01:26:47.979Z,4.65
2018-12-11T01:27:47.987Z,4.59
2018-12-11T01:28:47.957Z,4.63
2018-12-11T01:29:47.956Z,4.66
2018-12-11T01:30:47.930Z,4.72
2018-12-11T01:31:47.921Z,4.70
2018-12-11T01:32:47.929Z,4.67
2018-12-11T01:33:47.907Z,4.55
2018-12-11T01:34:47.895Z,4.72
2018-12-11T01:35:47.887Z,4.72
2018-12-11T01:36:47.875Z,4.73
2018-12-11T01:37:47.881Z,4.70
2018-12-11T01:38:47.853Z,4.60
2018-12-11T01:39:47.849Z,4.62
2018-12-11T01:40:47.833Z,4.59
2018-12-11T01:41:47.824Z,4.69
2018-12-11T01:42:47.805Z,4.59
2018-12-11T01:43:47.809Z,4.65
2018-12-11T01:44:47.783Z,4.58
2018-12-11T01:45:47.768Z,4.59
2018-12-11T01:46:47.765Z,4.59
2018-12-11T01:47:47.765Z,4.59
2018-12-11T01:48:47.759Z,4.55
2018-12-11T01:49:47.730Z,4.67
2018-12-11T01:50:47.722Z,4.80
2018-12-11T01:51:47.707Z,4.80
2018-12-11T01:52:47.710Z,4.72
2018-12-11T01:53:47.701Z,4.77
2018-12-11T01:54:47.678Z,4.65
2018-12-11T01:55:47.664Z,4.70
2018-12-11T01:56:47.666Z,4.75
2018-12-11T01:57:47.656Z,4.66
2018-12-11T01:58:47.654Z,4.80
2018-12-11T01:59:47.627Z,4.72
2018-12-11T02:00:47.615Z,4.72
2018-12-11T02:01:47.609Z,4.69
2018-12-11T02:02:47.601Z,4.60
2018-12-11T02:03:47.607Z,4.82
2018-12-11T02:04:47.561Z,4.78
2018-12-11T02:05:47.553Z,4.70
2018-12-11T02:06:47.592Z,4.78
2018-12-11T02:07:47.539Z,4.77
2018-12-11T02:08:47.547Z,4.69
2018-12-11T02:09:47.530Z,4.66
2018-12-11T02:10:47.503Z,4.72
2018-12-11T02:11:47.503Z,4.72
2018-12-11T02:12:47.484Z,4.65
2018-12-11T02:13:47.517Z,4.70
2018-12-11T02:14:47.460Z,4.69
2018-12-11T02:15:47.460Z,4.77
2018-12-11T02:16:47.450Z,4.67
2018-12-11T02:17:47.422Z,4.73
2018-12-11T02:18:47.424Z,4.66
2018-12-11T02:19:47.419Z,4.66
2018-12-11T02:20:47.410Z,4.62
2018-12-11T02:21:47.387Z,4.65
2018-12-11T02:22:47.371Z,4.67
2018-12-11T02:23:47.353Z,4.69
2018-12-11T02:24:47.407Z,4.75
2018-12-11T02:25:47.337Z,4.72
2018-12-11T02:26:47.331Z,4.72
2018-12-11T02:27:47.319Z,4.78
2018-12-11T02:28:47.303Z,4.77
2018-12-11T02:29:47.317Z,4.78
2018-12-11T02:30:47.292Z,4.75
2018-12-11T02:31:47.287Z,4.77
2018-12-11T02:32:47.259Z,4.69
2018-12-11T02:33:47.264Z,4.82
2018-12-11T02:34:47.261Z,4.84
2018-12-11T02:35:47.234Z,4.89
2018-12-11T02:36:47.214Z,4.86
2018-12-11T02:37:47.232Z,4.92
2018-12-11T02:38:47.195Z,4.82
2018-12-11T02:39:47.208Z,4.91
2018-12-11T02:40:47.179Z,4.97
2018-12-11T02:41:47.171Z,4.86
2018-12-11T02:42:47.150Z,4.88
2018-12-11T02:43:47.144Z,4.88
2018-12-11T02:44:47.164Z,4.97
2018-12-11T02:45:47.130Z,4.91
2018-12-11T02:46:47.113Z,4.91
2018-12-11T02:47:47.103Z,4.88
2018-12-11T02:48:47.087Z,4.84
2018-12-11T02:49:47.104Z,4.78
2018-12-11T02:50:47.063Z,4.84
2018-12-11T02:51:47.061Z,4.78
2018-12-11T02:52:47.063Z,4.86
2018-12-11T02:53:47.033Z,4.73
2018-12-11T02:54:47.035Z,4.75
2018-12-11T02:55:47.063Z,4.84
2018-12-11T02:56:47.000Z,4.77
2018-12-11T02:57:46.999Z,4.78
2018-12-11T02:58:46.981Z,4.70
2018-12-11T02:59:46.982Z,4.66
2018-12-11T03:00:46.952Z,4.75
2018-12-11T03:01:46.943Z,4.77
2018-12-11T03:02:46.941Z,4.70
2018-12-11T03:03:46.924Z,4.84
2018-12-11T03:04:46.944Z,4.84
2018-12-11T03:05:46.898Z,4.75
2018-12-11T03:06:46.885Z,4.77
2018-12-11T03:07:46.890Z,4.85
2018-12-11T03:08:46.877Z,4.73
2018-12-11T03:09:46.864Z,4.86
2018-12-11T03:10:46.860Z,4.78
2018-12-11T03:11:46.833Z,4.73
2018-12-11T03:12:46.822Z,4.80
2018-12-11T03:13:46.809Z,4.70
2018-12-11T03:14:46.811Z,4.78
2018-12-11T03:15:46.814Z,4.84
2018-12-11T03:16:46.793Z,4.94
2018-12-11T03:17:46.771Z,4.94
2018-12-11T03:18:46.750Z,4.92
2018-12-11T03:19:46.738Z,4.85
2018-12-11T03:20:46.756Z,4.96
2018-12-11T03:21:46.732Z,4.92
2018-12-11T03:22:46.712Z,4.91
2018-12-11T03:23:46.703Z,4.96
2018-12-11T03:24:46.683Z,4.92
2018-12-11T03:25:46.695Z,4.86
2018-12-11T03:26:46.667Z,4.88
2018-12-11T03:27:46.665Z,4.86
2018-12-11T03:28:46.644Z,4.96
2018-12-11T03:29:46.644Z,5.00
2018-12-11T03:30:46.645Z,4.89
2018-12-11T03:31:46.626Z,4.86
2018-12-11T03:32:46.610Z,4.96
2018-12-11T03:33:46.592Z,4.89
2018-12-11T03:34:46.604Z,5.00
2018-12-11T03:35:46.586Z,4.92
2018-12-11T03:36:46.560Z,4.89
2018-12-11T03:37:46.554Z,4.82
2018-12-11T03:38:46.538Z,4.85
2018-12-11T03:39:46.550Z,4.92
2018-12-11T03:40:46.535Z,4.84
2018-12-11T03:41:46.504Z,4.96
2018-12-11T03:42:46.496Z,4.92
2018-12-11T03:43:46.493Z,4.89
2018-12-11T03:44:46.476Z,4.88
2018-12-11T03:45:46.499Z,4.99
2018-12-11T03:46:46.438Z,4.85
2018-12-11T03:47:46.429Z,4.96
2018-12-11T03:48:46.448Z,4.92
2018-12-11T03:49:46.421Z,4.92
2018-12-11T03:50:46.416Z,4.99
2018-12-11T03:51:57.518Z,4.89
2018-12-11T03:52:46.387Z,4.97
2018-12-11T03:53:46.375Z,4.97
2018-12-11T03:54:46.366Z,4.84
2018-12-11T03:55:46.355Z,4.84
2018-12-11T03:56:46.359Z,4.91
2018-12-11T03:57:46.327Z,4.94
2018-12-11T03:58:46.313Z,4.92
2018-12-11T03:59:46.324Z,4.97
2018-12-11T04:00:46.311Z,4.97
2018-12-11T04:01:46.308Z,4.89
2018-12-11T04:02:46.269Z,4.92
2018-12-11T04:03:46.257Z,4.86
2018-12-11T04:04:46.253Z,4.86
2018-12-11T04:05:46.239Z,4.88
2018-12-11T04:06:46.254Z,4.89
2018-12-11T04:07:46.220Z,4.86
2018-12-11T04:08:46.224Z,4.85
2018-12-11T04:09:46.191Z,4.85
2018-12-11T04:10:46.180Z,4.84
2018-12-11T04:11:46.190Z,4.92
2018-12-11T04:12:46.159Z,4.84
2018-12-11T04:13:46.143Z,4.75
2018-12-11T04:14:46.141Z,4.77
2018-12-11T04:15:46.115Z,4.84
2018-12-11T04:16:46.135Z,4.85
2018-12-11T04:17:46.103Z,4.86
2018-12-11T04:18:46.096Z,4.82
2018-12-11T04:19:46.080Z,4.84
2018-12-11T04:20:46.077Z,4.84
2018-12-11T04:21:46.082Z,4.82
2018-12-11T04:22:46.056Z,4.69
2018-12-11T04:23:46.039Z,4.75
2018-12-11T04:24:46.030Z,4.75
2018-12-11T04:25:46.013Z,4.77
2018-12-11T04:26:46.038Z,4.75
2018-12-11T04:27:45.993Z,4.70
2018-12-11T04:28:45.999Z,4.73
2018-12-11T04:29:45.987Z,4.73
2018-12-11T04:30:45.965Z,4.75
2018-12-11T04:31:45.974Z,4.85
2018-12-11T04:32:45.931Z,4.70
2018-12-11T04:33:45.933Z,4.70
2018-12-11T04:34:45.922Z,4.69
2018-12-11T04:35:45.914Z,4.75
2018-12-11T04:36:45.921Z,4.72
2018-12-11T04:37:45.883Z,4.72
2018-12-11T04:38:45.887Z,4.72
2018-12-11T04:39:45.860Z,4.77
2018-12-11T04:40:45.861Z,4.72
2018-12-11T04:41:45.854Z,4.78
2018-12-11T04:42:45.859Z,4.66
2018-12-11T04:43:45.820Z,4.72
2018-12-11T04:44:45.847Z,4.73
2018-12-11T04:45:45.807Z,4.67
2018-12-11T04:46:45.788Z,4.69
2018-12-11T04:47:45.796Z,4.62
2018-12-11T04:48:45.800Z,4.67
2018-12-11T04:49:45.769Z,4.70
2018-12-11T04:50:45.752Z,4.75
2018-12-11T04:51:45.779Z,4.67
2018-12-11T04:52:45.740Z,4.77
2018-12-11T04:53:45.729Z,4.75
2018-12-11T04:54:45.714Z,4.72
2018-12-11T04:55:45.693Z,4.69
2018-12-11T04:56:45.678Z,4.70
2018-12-11T04:57:45.692Z,4.70
2018-12-11T04:58:45.678Z,4.77
2018-12-11T04:59:45.643Z,4.77
2018-12-11T05:00:45.636Z,4.73
2018-12-11T05:01:45.687Z,4.69
2018-12-11T05:02:45.641Z,4.73
2018-12-11T05:03:45.617Z,4.72
2018-12-11T05:04:45.593Z,4.75
2018-12-11T05:05:45.622Z,4.80
2018-12-11T05:06:45.564Z,4.73
2018-12-11T05:07:45.601Z,4.72
2018-12-11T05:08:45.553Z,4.59
2018-12-11T05:09:45.536Z,4.62
2018-12-11T05:10:45.544Z,4.67
2018-12-11T05:11:45.537Z,4.59
2018-12-11T05:12:45.531Z,4.60
2018-12-11T05:13:45.497Z,4.66
2018-12-11T05:14:45.513Z,4.73
2018-12-11T05:15:45.470Z,4.77
2018-12-11T05:16:45.465Z,4.67
2018-12-11T05:17:45.470Z,4.62
2018-12-11T05:18:45.440Z,4.60
2018-12-11T05:19:45.427Z,4.62
2018-12-11T05:20:45.407Z,4.66
2018-12-11T05:21:45.402Z,4.52
2018-12-11T05:22:45.416Z,4.54
2018-12-11T05:23:45.375Z,4.55
2018-12-11T05:24:45.397Z,4.54
2018-12-11T05:25:45.371Z,4.48
2018-12-11T05:26:45.349Z,4.52
2018-12-11T05:27:45.436Z,4.54
2018-12-11T05:28:45.333Z,4.58
2018-12-11T05:29:45.322Z,4.62
2018-12-11T05:30:45.307Z,4.55
2018-12-11T05:31:45.305Z,4.59
2018-12-11T05:32:45.291Z,4.65
2018-12-11T05:33:45.282Z,4.66
2018-12-11T05:34:45.265Z,4.62
2018-12-11T05:35:45.249Z,4.54
2018-12-11T05:36:45.246Z,4.55
2018-12-11T05:37:45.238Z,4.55
2018-12-11T05:38:45.261Z,4.52
2018-12-11T05:39:45.219Z,4.48
2018-12-11T05:40:45.199Z,4.42
2018-12-11T05:41:45.207Z,4.48
2018-12-11T05:42:45.189Z,4.44
2018-12-11T05:43:45.195Z,4.47
2018-12-11T05:44:45.163Z,4.45
2018-12-11T05:45:45.157Z,4.42
2018-12-11T05:46:45.142Z,4.44
2018-12-11T05:47:45.118Z,4.42
2018-12-11T05:48:45.139Z,4.47
2018-12-11T05:49:45.099Z,4.42
2018-12-11T05:50:45.101Z,4.37
2018-12-11T05:51:45.070Z,4.41
2018-12-11T05:52:45.081Z,4.27
2018-12-11T05:53:45.076Z,4.37
2018-12-11T05:54:45.074Z,4.32
2018-12-11T05:55:45.035Z,4.42
2018-12-11T05:56:45.033Z,4.37
2018-12-11T05:57:45.013Z,4.30
2018-12-11T05:58:45.018Z,4.40
2018-12-11T05:59:45.000Z,4.36
2018-12-11T06:00:44.975Z,4.26
2018-12-11T06:01:45.838Z,4.30
2018-12-11T06:02:44.980Z,4.15
2018-12-11T06:03:44.978Z,4.18
2018-12-11T06:04:44.933Z,4.12
2018-12-11T06:05:44.930Z,4.06
2018-12-11T06:06:44.906Z,3.98
2018-12-11T06:07:44.907Z,3.94
2018-12-11T06:08:44.942Z,4.00
2018-12-11T06:09:44.891Z,3.91
2018-12-11T06:10:44.874Z,3.90
2018-12-11T06:11:44.865Z,3.88
2018-12-11T06:12:44.845Z,3.84
2018-12-11T06:13:44.896Z,3.93
2018-12-11T06:14:44.824Z,3.88
2018-12-11T06:15:44.818Z,3.84
2018-12-11T06:16:44.816Z,3.97
2018-12-11T06:17:44.804Z,3.88
2018-12-11T06:18:44.811Z,3.87
2018-12-11T06:19:44.785Z,3.88
2018-12-11T06:20:44.768Z,3.87
2018-12-11T06:21:44.755Z,3.83
2018-12-11T06:22:44.754Z,3.86
2018-12-11T06:23:44.747Z,3.84
2018-12-11T06:24:44.733Z,3.90
2018-12-11T06:25:44.703Z,3.87
2018-12-11T06:26:44.701Z,3.98
2018-12-11T06:27:44.687Z,3.97
2018-12-11T06:28:44.703Z,3.94
2018-12-11T06:29:44.713Z,3.91
2018-12-11T06:30:44.656Z,3.88
2018-12-11T06:31:44.644Z,3.94
2018-12-11T06:32:44.641Z,3.94
2018-12-11T06:33:44.618Z,3.93
2018-12-11T06:34:44.632Z,3.93
2018-12-11T06:35:44.596Z,3.84
2018-12-11T06:36:44.588Z,3.84
2018-12-11T06:37:44.583Z,3.93
2018-12-11T06:38:44.564Z,3.88
2018-12-11T06:39:44.578Z,3.98
2018-12-11T06:40:44.540Z,3.91
2018-12-11T06:41:44.548Z,3.96
2018-12-11T06:42:44.526Z,3.93
2018-12-11T06:43:44.685Z,3.91
2018-12-11T06:44:44.526Z,3.88
2018-12-11T06:45:44.501Z,3.87
2018-12-11T06:46:44.500Z,3.84
2018-12-11T06:47:44.483Z,4.00
2018-12-11T06:48:44.454Z,4.20
2018-12-11T06:49:44.498Z,4.32
2018-12-11T06:50:44.438Z,4.41
2018-12-11T06:51:44.518Z,4.36
2018-12-11T06:52:44.418Z,4.37
2018-12-11T06:53:44.420Z,4.48
2018-12-11T06:54:44.432Z,4.47
2018-12-11T06:55:44.384Z,4.48
2018-12-11T06:56:44.369Z,4.55
2018-12-11T06:57:44.370Z,4.55
2018-12-11T06:58:44.352Z,4.78
2018-12-11T06:59:44.353Z,4.73
2018-12-11T07:00:44.335Z,4.75
2018-12-11T07:01:44.320Z,4.72
2018-12-11T07:02:44.315Z,4.72
2018-12-11T07:03:44.298Z,4.55
2018-12-11T07:04:44.293Z,4.47
2018-12-11T07:05:44.284Z,4.37
2018-12-11T07:06:44.433Z,4.29
2018-12-11T07:07:44.249Z,4.24
2018-12-11T07:08:44.241Z,4.30
2018-12-11T07:09:44.226Z,4.29
2018-12-11T07:10:44.234Z,4.16
2018-12-11T07:11:44.200Z,4.20
2018-12-11T07:12:44.193Z,4.18
2018-12-11T07:13:44.188Z,4.18
2018-12-11T07:14:44.192Z,4.15
2018-12-11T07:15:44.193Z,4.15
2018-12-11T07:16:44.149Z,4.11
2018-12-11T07:17:44.143Z,4.18
2018-12-11T07:18:44.127Z,4.18
2018-12-11T07:19:44.121Z,4.18
2018-12-11T07:20:44.141Z,4.16
2018-12-11T07:21:44.090Z,4.16
2018-12-11T07:22:44.092Z,4.23
2018-12-11T07:23:44.134Z,4.14
2018-12-11T07:24:44.080Z,4.16
2018-12-11T07:25:44.071Z,4.18
2018-12-11T07:26:44.040Z,4.16
2018-12-11T07:27:44.026Z,4.20
2018-12-11T07:28:44.015Z,4.14
2018-12-11T07:29:44.008Z,4.18
2018-12-11T07:30:44.007Z,4.20
2018-12-11T07:31:44.009Z,4.18
2018-12-11T07:32:43.977Z,4.12
2018-12-11T07:33:43.963Z,4.16
2018-12-11T07:34:43.958Z,4.12
2018-12-11T07:35:43.956Z,4.18
2018-12-11T07:36:43.943Z,4.15
2018-12-11T07:37:43.924Z,4.02
2018-12-11T07:38:43.916Z,4.12
2018-12-11T07:39:43.896Z,4.11
2018-12-11T07:40:43.915Z,4.02
2018-12-11T07:41:43.877Z,4.15
2018-12-11T07:42:43.885Z,4.06
2018-12-11T07:43:43.967Z,4.00
2018-12-11T07:44:43.864Z,4.02
2018-12-11T07:45:43.831Z,4.14
2018-12-11T07:46:43.849Z,4.05
2018-12-11T07:47:43.815Z,4.06
2018-12-11T07:48:43.794Z,4.15
2018-12-11T07:49:43.783Z,4.06
2018-12-11T07:50:43.793Z,4.11
2018-12-11T07:51:43.785Z,3.94
2018-12-11T07:52:43.763Z,4.05
2018-12-11T07:53:43.741Z,4.04
2018-12-11T07:54:43.745Z,4.02
2018-12-11T07:55:43.721Z,4.04
2018-12-11T07:56:43.740Z,4.00
2018-12-11T07:57:43.721Z,4.00
2018-12-11T07:58:43.719Z,4.04
2018-12-11T07:59:43.670Z,4.02
2018-12-11T08:00:43.663Z,3.98
2018-12-11T08:01:43.756Z,3.97
2018-12-11T08:02:43.685Z,4.08
2018-12-11T08:03:43.753Z,4.05
2018-12-11T08:04:43.646Z,4.06
2018-12-11T08:05:43.609Z,4.02
2018-12-11T08:06:43.645Z,4.08
2018-12-11T08:07:43.593Z,4.02
2018-12-11T08:08:43.578Z,4.08
2018-12-11T08:09:43.579Z,4.05
2018-12-11T08:10:43.563Z,4.04
2018-12-11T08:11:43.568Z,4.09
2018-12-11T08:12:43.537Z,4.06
2018-12-11T08:13:43.524Z,4.04
2018-12-11T08:14:43.521Z,4.08
2018-12-11T08:15:43.522Z,4.04
2018-12-11T08:16:43.553Z,4.06
2018-12-11T08:17:43.475Z,4.00
2018-12-11T08:18:43.566Z,3.90
2018-12-11T08:19:43.475Z,3.91
2018-12-11T08:20:43.439Z,3.90
2018-12-11T08:21:43.457Z,3.80
2018-12-11T08:22:43.432Z,3.86
2018-12-11T08:23:43.420Z,3.79
2018-12-11T08:24:43.406Z,3.73
2018-12-11T08:25:43.407Z,3.76
2018-12-11T08:26:43.422Z,3.78
2018-12-11T08:27:43.378Z,3.83
2018-12-11T08:28:43.375Z,3.79
2018-12-11T08:29:43.341Z,3.80
2018-12-11T08:30:43.342Z,3.75
2018-12-11T08:31:43.347Z,3.70
2018-12-11T08:32:43.320Z,3.83
2018-12-11T08:33:43.316Z,3.75
2018-12-11T08:34:43.319Z,3.72
2018-12-11T08:35:43.288Z,3.68
2018-12-11T08:36:43.314Z,3.72
2018-12-11T08:37:43.290Z,3.75
2018-12-11T08:38:43.260Z,3.88
2018-12-11T08:39:43.231Z,3.72
2018-12-11T08:40:43.239Z,3.75
2018-12-11T08:41:43.220Z,3.78
2018-12-11T08:42:43.238Z,3.76
2018-12-11T08:43:43.209Z,3.75
2018-12-11T08:44:43.212Z,3.83
2018-12-11T08:45:43.193Z,3.87
2018-12-11T08:46:43.262Z,3.84
2018-12-11T08:47:43.162Z,3.87
2018-12-11T08:48:43.142Z,3.78
2018-12-11T08:49:43.144Z,3.86
2018-12-11T08:50:43.118Z,3.88
2018-12-11T08:51:43.125Z,3.83
2018-12-11T08:52:43.129Z,3.79
2018-12-11T08:53:43.107Z,3.79
2018-12-11T08:54:43.078Z,3.88
2018-12-11T08:55:43.075Z,3.94
2018-12-11T08:56:43.056Z,3.87
2018-12-11T08:57:43.058Z,3.93
2018-12-11T08:58:43.034Z,3.86
2018-12-11T08:59:43.017Z,3.79
2018-12-11T09:00:43.011Z,3.73
2018-12-11T09:01:43.025Z,3.70
2018-12-11T09:02:43.017Z,3.70
2018-12-11T09:03:42.982Z,3.65
2018-12-11T09:04:43.007Z,3.68
2018-12-11T09:05:42.957Z,3.60
2018-12-11T09:06:42.947Z,3.65
2018-12-11T09:07:42.995Z,3.58
2018-12-11T09:08:42.963Z,3.60
2018-12-11T09:09:42.932Z,3.55
2018-12-11T09:10:42.899Z,3.58
2018-12-11T09:11:42.896Z,3.58
2018-12-11T09:12:42.923Z,3.62
2018-12-11T09:13:42.878Z,3.68
2018-12-11T09:14:42.864Z,3.65
2018-12-11T09:15:42.842Z,3.62
2018-12-11T09:16:42.839Z,3.62
2018-12-11T09:17:42.826Z,3.58
2018-12-11T09:18:42.840Z,3.60
2018-12-11T09:19:42.805Z,3.60
2018-12-11T09:20:42.840Z,3.69
2018-12-11T09:21:42.798Z,3.60
2018-12-11T09:22:42.784Z,3.65
2018-12-11T09:23:42.776Z,3.68
2018-12-11T09:24:42.752Z,3.69
2018-12-11T09:25:42.751Z,3.70
2018-12-11T09:26:42.732Z,3.75
2018-12-11T09:27:42.727Z,3.72
2018-12-11T09:28:42.723Z,3.62
2018-12-11T09:29:42.704Z,3.75
2018-12-11T09:30:42.687Z,3.80
2018-12-11T09:31:42.673Z,3.76
2018-12-11T09:32:42.661Z,3.78
2018-12-11T09:33:42.671Z,3.76
2018-12-11T09:34:42.663Z,3.78
2018-12-11T09:35:42.638Z,3.79
2018-12-11T09:36:42.631Z,3.83
2018-12-11T09:37:42.603Z,3.73
2018-12-11T09:38:42.622Z,3.80
2018-12-11T09:39:42.583Z,3.73
2018-12-11T09:40:42.579Z,3.69
2018-12-11T09:41:42.567Z,3.72
2018-12-11T09:42:42.561Z,3.73
2018-12-11T09:43:42.569Z,3.76
2018-12-11T09:44:42.530Z,3.84
2018-12-11T09:45:42.541Z,3.83
2018-12-11T09:46:42.523Z,3.84
2018-12-11T09:47:42.499Z,3.84
2018-12-11T09:48:42.510Z,3.84
2018-12-11T09:49:42.473Z,3.83
2018-12-11T09:50:42.471Z,3.84
2018-12-11T09:51:42.446Z,3.79
2018-12-11T09:52:42.446Z,3.78
2018-12-11T09:53:42.503Z,3.80
2018-12-11T09:54:42.428Z,3.83
2018-12-11T09:55:42.414Z,3.83
2018-12-11T09:56:42.409Z,3.84
2018-12-11T09:57:42.388Z,3.83
2018-12-11T09:58:42.383Z,3.76
2018-12-11T09:59:42.436Z,3.78
2018-12-11T10:00:42.456Z,3.79
2018-12-11T10:01:42.344Z,3.84
2018-12-11T10:02:42.333Z,3.78
2018-12-11T10:03:42.465Z,3.83
2018-12-11T10:04:42.328Z,3.87
2018-12-11T10:05:42.307Z,3.80
2018-12-11T10:06:42.281Z,3.83
2018-12-11T10:07:42.282Z,3.88
2018-12-11T10:08:42.272Z,3.97
2018-12-11T10:09:42.270Z,3.96
2018-12-11T10:10:42.250Z,3.86
2018-12-11T10:11:42.244Z,3.87
2018-12-11T10:12:42.220Z,3.86
2018-12-11T10:13:42.211Z,3.83
2018-12-11T10:14:42.224Z,3.87
2018-12-11T10:15:42.196Z,3.86
2018-12-11T10:16:42.186Z,3.91
2018-12-11T10:17:42.174Z,3.80
2018-12-11T10:18:42.158Z,3.86
2018-12-11T10:19:42.156Z,3.84
2018-12-11T10:20:42.152Z,3.90
2018-12-11T10:21:42.126Z,3.87
2018-12-11T10:22:42.120Z,3.73
2018-12-11T10:23:42.107Z,3.87
2018-12-11T10:24:42.136Z,3.78
2018-12-11T10:25:42.086Z,3.79
2018-12-11T10:26:42.084Z,3.84
2018-12-11T10:27:42.110Z,3.84
2018-12-11T10:28:42.062Z,3.90
2018-12-11T10:29:42.058Z,3.86
2018-12-11T10:30:42.046Z,3.79
2018-12-11T10:31:42.013Z,3.86
2018-12-11T10:32:42.013Z,3.83
2018-12-11T10:33:41.994Z,3.87
2018-12-11T10:34:42.012Z,3.88
2018-12-11T10:35:41.992Z,3.96
2018-12-11T10:36:42.006Z,3.93
2018-12-11T10:37:41.949Z,3.91
2018-12-11T10:38:41.944Z,3.91
2018-12-11T10:39:41.964Z,3.88
2018-12-11T10:40:41.928Z,3.84
2018-12-11T10:41:41.915Z,3.86
2018-12-11T10:42:41.902Z,3.87
2018-12-11T10:43:41.891Z,3.79
2018-12-11T10:44:41.873Z,3.87
2018-12-11T10:45:41.879Z,3.86
2018-12-11T10:46:41.853Z,3.84
2018-12-11T10:47:41.846Z,3.88
2018-12-11T10:48:41.825Z,3.94
2018-12-11T10:49:41.825Z,3.93
2018-12-11T10:50:41.833Z,3.97
2018-12-11T10:51:41.857Z,3.86
2018-12-11T10:52:41.789Z,3.91
2018-12-11T10:53:41.775Z,3.97
2018-12-11T10:54:41.771Z,3.87
2018-12-11T10:55:46.334Z,3.88
2018-12-11T10:56:41.746Z,3.90
2018-12-11T10:57:41.732Z,3.97
2018-12-11T10:58:41.733Z,3.90
2018-12-11T10:59:41.735Z,3.90
2018-12-11T11:00:41.711Z,3.84
2018-12-11T11:01:41.696Z,3.83
2018-12-11T11:02:41.677Z,3.84
2018-12-11T11:03:41.664Z,3.84
2018-12-11T11:04:41.653Z,3.86
2018-12-11T11:05:41.655Z,3.87
2018-12-11T11:06:41.649Z,3.86
2018-12-11T11:07:41.647Z,3.90
2018-12-11T11:08:41.617Z,3.87
2018-12-11T11:09:41.617Z,3.91
2018-12-11T11:10:41.609Z,3.78
2018-12-11T11:11:42.043Z,3.76
2018-12-11T11:12:41.591Z,3.80
2018-12-11T11:13:41.554Z,3.78
2018-12-11T11:14:41.559Z,3.73
2018-12-11T11:15:41.555Z,3.75
2018-12-11T11:16:41.531Z,3.79
2018-12-11T11:17:41.511Z,3.76
2018-12-11T11:18:41.501Z,3.75
2018-12-11T11:19:41.493Z,3.79
2018-12-11T11:20:41.509Z,3.75
2018-12-11T11:21:41.473Z,3.73
2018-12-11T11:22:41.453Z,3.80
2018-12-11T11:23:41.448Z,3.78
2018-12-11T11:24:41.438Z,3.86
2018-12-11T11:25:41.439Z,3.76
2018-12-11T11:26:41.414Z,3.87
2018-12-11T11:27:41.413Z,3.84
2018-12-11T11:28:41.390Z,3.73
2018-12-11T11:29:41.380Z,3.80
2018-12-11T11:30:41.403Z,3.79
2018-12-11T11:31:41.403Z,3.76
2018-12-11T11:32:41.374Z,3.83
2018-12-11T11:33:41.341Z,3.73
2018-12-11T11:34:41.323Z,3.78
2018-12-11T11:35:41.323Z,3.70
2018-12-11T11:36:41.328Z,3.80
2018-12-11T11:37:41.296Z,3.78
2018-12-11T11:38:41.291Z,3.72
2018-12-11T11:39:41.281Z,3.72
2018-12-11T11:40:41.277Z,3.75
2018-12-11T11:41:41.268Z,3.69
2018-12-11T11:42:41.236Z,3.62
2018-12-11T11:43:41.235Z,3.70
2018-12-11T11:44:41.222Z,3.69
2018-12-11T11:45:41.229Z,3.61
2018-12-11T11:46:41.227Z,3.66
2018-12-11T11:47:41.194Z,3.73
2018-12-11T11:48:41.192Z,3.72
2018-12-11T11:49:41.160Z,3.72
2018-12-11T11:50:41.163Z,3.70
2018-12-11T11:51:41.156Z,3.70
2018-12-11T11:52:41.137Z,3.70
2018-12-11T11:53:41.116Z,3.70
2018-12-11T11:54:41.106Z,3.66
2018-12-11T11:55:41.094Z,3.66
2018-12-11T11:56:41.100Z,3.58
2018-12-11T11:57:41.084Z,3.61
2018-12-11T11:58:41.060Z,3.61
2018-12-11T11:59:41.066Z,3.61
2018-12-11T12:00:41.044Z,3.68
2018-12-11T12:01:41.052Z,3.70
2018-12-11T12:02:41.028Z,3.70
2018-12-11T12:03:41.059Z,3.69
2018-12-11T12:04:41.005Z,3.69
2018-12-11T12:05:40.984Z,3.78
2018-12-11T12:06:41.000Z,3.73
2018-12-11T12:07:40.968Z,3.65
2018-12-11T12:08:40.954Z,3.73
2018-12-11T12:09:40.951Z,3.70
2018-12-11T12:10:40.928Z,3.72
2018-12-11T12:11:40.942Z,3.66
2018-12-11T12:12:40.920Z,3.57
2018-12-11T12:13:40.964Z,3.66
2018-12-11T12:14:40.900Z,3.60
2018-12-11T12:15:40.896Z,3.60
2018-12-11T12:16:40.898Z,3.62
2018-12-11T12:17:40.850Z,3.54
2018-12-11T12:18:40.884Z,3.57
2018-12-11T12:19:40.833Z,3.62
2018-12-11T12:20:40.831Z,3.57
2018-12-11T12:21:40.825Z,3.54
2018-12-11T12:22:40.821Z,3.60
2018-12-11T12:23:40.787Z,3.57
2018-12-11T12:24:40.782Z,3.52
2018-12-11T12:25:40.770Z,3.54
2018-12-11T12:26:40.782Z,3.60
2018-12-11T12:27:40.745Z,3.55
2018-12-11T12:28:40.739Z,3.61
2018-12-11T12:29:40.728Z,3.61
2018-12-11T12:30:40.709Z,3.58
2018-12-11T12:31:40.707Z,3.62
2018-12-11T12:32:40.706Z,3.55
2018-12-11T12:33:40.739Z,3.57
2018-12-11T12:34:40.688Z,3.57
2018-12-11T12:35:40.677Z,3.68
2018-12-11T12:36:40.646Z,3.62
2018-12-11T12:37:40.682Z,3.62
2018-12-11T12:38:40.691Z,3.60
2018-12-11T12:39:40.638Z,3.60
2018-12-11T12:40:40.613Z,3.58
2018-12-11T12:41:40.612Z,3.60
2018-12-11T12:42:40.616Z,3.69
2018-12-11T12:43:40.582Z,3.58
2018-12-11T12:44:40.576Z,3.60
2018-12-11T12:45:40.566Z,3.60
2018-12-11T12:46:40.565Z,3.65
2018-12-11T12:47:40.547Z,3.55
2018-12-11T12:48:40.533Z,3.57
2018-12-11T12:49:40.519Z,3.69
2018-12-11T12:50:40.505Z,3.70
2018-12-11T12:51:40.508Z,3.70
2018-12-11T12:52:40.820Z,3.69
2018-12-11T12:53:40.483Z,3.76
2018-12-11T12:54:40.462Z,3.73
2018-12-11T12:55:40.449Z,3.79
2018-12-11T12:56:40.457Z,3.62
2018-12-11T12:57:40.457Z,3.73
2018-12-11T12:58:40.416Z,3.66
2018-12-11T12:59:40.404Z,3.66
2018-12-11T13:00:40.387Z,3.62
2018-12-11T13:01:40.408Z,3.68
2018-12-11T13:02:40.385Z,3.61
2018-12-11T13:03:40.373Z,3.72
2018-12-11T13:04:40.349Z,3.72
2018-12-11T13:05:40.334Z,3.76
2018-12-11T13:06:40.324Z,3.73
2018-12-11T13:07:40.348Z,3.72
2018-12-11T13:08:40.315Z,3.80
2018-12-11T13:09:40.290Z,3.79
2018-12-11T13:10:40.291Z,3.76
2018-12-11T13:11:40.272Z,3.69
2018-12-11T13:12:40.291Z,3.66
2018-12-11T13:13:40.285Z,3.70
2018-12-11T13:14:40.234Z,3.79
2018-12-11T13:15:40.238Z,3.83
2018-12-11T13:16:40.217Z,3.69
2018-12-11T13:17:40.210Z,3.68
2018-12-11T13:18:40.210Z,3.66